Time;durP1;ratioP1;P1;durP2;ratioP2;P2;SDS_P1;SDS_P2;PMS_P1;PMS_P2;Temp;Humidity;BMP_temperature;BMP_pressure;BME280_temperature;BME280_humidity;BME280_pressure;Samples;Min_cycle;Max_cycle;Signal;HPM_P1;HPM_P2
2023/07/01 00:01:08;;;;;;;4.10;2.75;;;16.30;76.90;;;;;;4995279;28;20050;-64
2023/07/01 00:03:36;;;;;;;3.42;2.55;;;16.30;77.00;;;;;;4973199;28;20118;-65
2023/07/01 00:06:03;;;;;;;3.92;2.80;;;16.30;76.90;;;;;;4980251;28;20154;-65
2023/07/01 00:08:30;;;;;;;3.63;2.50;;;16.20;76.90;;;;;;4981177;28;20061;-64
2023/07/01 00:11:00;;;;;;;3.90;2.67;;;16.20;76.90;;;;;;4978073;28;20043;-65
2023/07/01 00:13:28;;;;;;;4.10;2.75;;;16.20;76.90;;;;;;4981840;28;20045;-63
2023/07/01 00:15:56;;;;;;;3.08;2.38;;;16.20;76.80;;;;;;4982747;28;20090;-65
2023/07/01 00:18:23;;;;;;;3.47;2.42;;;16.10;76.90;;;;;;4975685;28;20050;-64
2023/07/01 00:20:54;;;;;;;4.32;3.15;;;16.10;76.90;;;;;;4976050;28;20046;-64
2023/07/01 00:23:21;;;;;;;3.17;2.40;;;16.10;76.80;;;;;;4982784;28;20177;-65
2023/07/01 00:25:48;;;;;;;3.63;2.53;;;16.10;76.80;;;;;;4989478;28;20041;-63
2023/07/01 00:28:15;;;;;;;4.32;3.03;;;16.10;76.90;;;;;;4967613;28;20050;-66
2023/07/01 00:30:42;;;;;;;4.45;3.00;;;16.10;76.70;;;;;;4986386;28;20066;-65
2023/07/01 00:33:10;;;;;;;3.95;2.58;;;16.00;76.80;;;;;;5002923;28;20057;-63
2023/07/01 00:35:37;;;;;;;4.63;2.88;;;15.90;76.90;;;;;;5010540;28;20046;-65
2023/07/01 00:38:04;;;;;;;4.82;3.35;;;15.90;77.00;;;;;;5013290;28;20042;-65
2023/07/01 00:40:31;;;;;;;5.50;2.70;;;15.90;77.00;;;;;;5011503;28;20050;-66
2023/07/01 00:42:58;;;;;;;5.28;3.22;;;15.90;76.90;;;;;;5010372;28;20053;-65
2023/07/01 00:45:25;;;;;;;5.03;3.10;;;15.90;76.90;;;;;;5007896;28;20593;-66
2023/07/01 00:47:52;;;;;;;4.40;2.97;;;15.80;77.00;;;;;;4996272;28;20053;-65
2023/07/01 00:50:20;;;;;;;4.05;2.78;;;15.80;77.00;;;;;;5011604;28;20054;-64
2023/07/01 00:52:47;;;;;;;5.50;3.00;;;15.80;76.80;;;;;;5013915;28;20112;-64
2023/07/01 00:55:14;;;;;;;4.95;3.22;;;15.70;76.90;;;;;;4986467;28;20051;-65
2023/07/01 00:57:41;;;;;;;4.63;2.90;;;15.70;77.00;;;;;;5017641;28;20068;-65
2023/07/01 01:00:10;;;;;;;4.40;3.33;;;15.60;77.10;;;;;;5006445;28;20048;-64
2023/07/01 01:02:51;;;;;;;4.13;3.07;;;15.60;77.10;;;;;;5016261;28;20132;-65
2023/07/01 01:05:23;;;;;;;4.55;3.03;;;15.60;77.10;;;;;;4995379;28;20069;-64
2023/07/01 01:07:59;;;;;;;6.15;3.22;;;15.60;76.90;;;;;;4996399;28;20050;-65
2023/07/01 01:10:27;;;;;;;5.25;3.30;;;15.60;77.00;;;;;;4992851;28;20054;-64
2023/07/01 01:12:58;;;;;;;4.70;3.38;;;15.60;77.00;;;;;;4979599;28;20051;-65
2023/07/01 01:15:26;;;;;;;4.53;3.13;;;15.50;77.10;;;;;;4976623;28;20053;-63
2023/07/01 01:17:57;;;;;;;3.47;2.88;;;15.50;77.10;;;;;;4976713;28;20042;-65
2023/07/01 01:20:30;;;;;;;4.25;3.00;;;15.50;77.10;;;;;;4987157;28;20049;-64
2023/07/01 01:23:02;;;;;;;4.25;2.90;;;15.50;77.20;;;;;;4999019;28;20074;-64
2023/07/01 01:25:36;;;;;;;4.70;3.15;;;15.40;77.20;;;;;;4983677;28;20421;-65
2023/07/01 01:28:05;;;;;;;4.97;3.05;;;15.40;77.10;;;;;;4999529;28;20521;-63
2023/07/01 01:30:33;;;;;;;4.63;3.15;;;15.40;77.10;;;;;;4994362;28;20409;-63
2023/07/01 01:33:00;;;;;;;4.57;2.80;;;15.30;77.40;;;;;;4997200;28;20605;-65
2023/07/01 01:35:27;;;;;;;5.22;2.53;;;15.30;77.20;;;;;;4994685;28;20052;-66
2023/07/01 01:37:59;;;;;;;4.07;2.65;;;15.30;77.30;;;;;;5001586;28;20054;-64
2023/07/01 01:40:31;;;;;;;4.18;2.70;;;15.20;77.50;;;;;;5008683;28;20523;-65
2023/07/01 01:43:04;;;;;;;5.35;3.00;;;15.20;77.70;;;;;;4999625;28;20097;-65
2023/07/01 01:45:35;;;;;;;3.60;2.50;;;15.20;77.80;;;;;;5013445;28;20050;-66
2023/07/01 01:48:04;;;;;;;5.30;2.95;;;15.20;77.80;;;;;;5005772;28;20042;-64
2023/07/01 01:50:32;;;;;;;5.28;2.90;;;15.20;77.80;;;;;;4992385;28;20044;-64
2023/07/01 01:53:01;;;;;;;4.60;2.80;;;15.20;77.70;;;;;;4991014;28;20532;-65
2023/07/01 01:55:30;;;;;;;4.10;2.58;;;15.20;77.70;;;;;;4994426;28;20441;-64
2023/07/01 01:57:58;;;;;;;4.32;2.88;;;15.20;77.80;;;;;;4995462;28;20054;-66
2023/07/01 02:00:25;;;;;;;4.47;3.20;;;15.10;77.70;;;;;;4987923;28;20142;-64
2023/07/01 02:02:54;;;;;;;4.75;3.13;;;15.20;77.60;;;;;;4990841;28;20054;-65
2023/07/01 02:05:20;;;;;;;3.80;2.97;;;15.20;77.60;;;;;;4998279;28;20038;-64
2023/07/01 02:07:47;;;;;;;5.22;3.40;;;15.20;77.70;;;;;;5006774;28;20046;-64
2023/07/01 02:10:14;;;;;;;5.00;3.63;;;15.20;77.60;;;;;;5012256;28;20509;-65
2023/07/01 02:12:41;;;;;;;4.68;3.28;;;15.20;77.60;;;;;;5013092;28;20053;-64
2023/07/01 02:15:09;;;;;;;4.90;3.28;;;15.20;77.80;;;;;;5012116;28;20057;-64
2023/07/01 02:17:36;;;;;;;5.20;3.50;;;15.20;77.90;;;;;;4991763;28;20054;-66
2023/07/01 02:20:05;;;;;;;4.72;3.35;;;15.20;78.10;;;;;;5013904;28;20370;-65
2023/07/01 02:22:32;;;;;;;5.13;3.38;;;15.20;78.20;;;;;;4993986;28;20056;-63
2023/07/01 02:24:59;;;;;;;6.80;3.55;;;15.20;78.20;;;;;;4986644;28;20077;-65
2023/07/01 02:27:30;;;;;;;6.10;3.53;;;15.30;78.00;;;;;;5000495;28;20042;-66
2023/07/01 02:29:57;;;;;;;6.05;4.40;;;15.30;78.00;;;;;;5009674;28;20076;-65
2023/07/01 02:32:24;;;;;;;5.25;4.20;;;15.30;78.40;;;;;;5017443;28;20056;-65
2023/07/01 02:34:51;;;;;;;6.00;4.05;;;15.20;78.80;;;;;;5015010;28;20050;-64
2023/07/01 02:37:19;;;;;;;6.18;4.03;;;15.20;79.00;;;;;;5002890;28;20072;-66
2023/07/01 02:39:47;;;;;;;5.70;4.30;;;15.30;79.20;;;;;;5018105;28;20485;-64
2023/07/01 02:42:16;;;;;;;5.82;4.47;;;15.30;79.10;;;;;;4999931;28;20049;-65
2023/07/01 02:44:43;;;;;;;6.15;4.88;;;15.30;79.10;;;;;;5016020;28;20117;-65
2023/07/01 02:47:10;;;;;;;8.02;5.78;;;15.30;79.30;;;;;;4995967;28;20103;-64
2023/07/01 02:49:40;;;;;;;7.28;5.40;;;15.20;79.70;;;;;;5006388;28;20057;-64
2023/07/01 02:52:07;;;;;;;;;;;15.20;79.70;;;;;;4999423;28;20057;-64
2023/07/01 02:54:38;;;;;;;9.98;6.03;;;15.30;79.70;;;;;;5011652;28;19925;-65
2023/07/01 02:57:08;;;;;;;8.18;5.68;;;15.30;79.90;;;;;;5015921;28;20049;-67
2023/07/01 02:59:35;;;;;;;8.43;6.05;;;15.30;80.10;;;;;;5013893;28;20049;-65
2023/07/01 03:02:02;;;;;;;8.05;6.10;;;15.30;80.10;;;;;;5015640;28;20108;-64
2023/07/01 03:04:29;;;;;;;8.60;6.38;;;15.40;79.90;;;;;;4996380;28;20045;-64
2023/07/01 03:06:56;;;;;;;9.00;6.60;;;15.30;80.00;;;;;;4984310;28;20042;-66
2023/07/01 03:09:23;;;;;;;10.02;6.55;;;15.20;80.30;;;;;;5010143;28;20046;-65
2023/07/01 03:11:52;;;;;;;9.23;6.00;;;15.20;80.20;;;;;;4997812;28;20505;-65
2023/07/01 03:14:20;;;;;;;8.75;6.03;;;15.20;80.10;;;;;;4978742;28;20054;-64
2023/07/01 03:16:47;;;;;;;7.25;5.53;;;15.20;80.10;;;;;;4983040;28;20353;-65
2023/07/01 03:19:14;;;;;;;6.60;5.32;;;15.20;80.20;;;;;;4981766;28;20113;-66
2023/07/01 03:21:42;;;;;;;6.15;4.57;;;15.20;80.20;;;;;;4980092;28;20475;-64
2023/07/01 03:24:09;;;;;;;8.43;5.32;;;15.10;80.10;;;;;;4989205;28;20046;-63
2023/07/01 03:26:36;;;;;;;6.95;5.00;;;15.10;80.10;;;;;;4999511;28;20626;-64
2023/07/01 03:29:05;;;;;;;6.38;5.18;;;15.10;80.20;;;;;;4998917;28;20136;-64
2023/07/01 03:31:33;;;;;;;6.35;5.07;;;15.00;80.10;;;;;;5015616;28;20053;-64
2023/07/01 03:34:00;;;;;;;6.97;5.00;;;15.00;80.00;;;;;;5006614;28;20053;-64
2023/07/01 03:36:27;;;;;;;5.90;4.63;;;15.00;79.80;;;;;;5010497;28;20081;-65
2023/07/01 03:38:57;;;;;;;6.55;4.88;;;15.00;79.90;;;;;;5015682;28;20065;-67
2023/07/01 03:41:25;;;;;;;6.45;4.80;;;15.00;80.00;;;;;;5019929;28;20120;-66
2023/07/01 03:43:52;;;;;;;6.65;5.25;;;15.00;80.20;;;;;;5017343;28;20572;-66
2023/07/01 03:46:21;;;;;;;6.53;5.45;;;15.00;80.30;;;;;;5016711;28;20054;-66
2023/07/01 03:48:47;;;;;;;6.63;5.28;;;15.00;80.30;;;;;;5009355;28;20073;-65
2023/07/01 03:51:15;;;;;;;5.63;4.68;;;15.00;80.30;;;;;;4999182;28;20050;-65
2023/07/01 03:53:42;;;;;;;7.53;5.15;;;15.00;80.10;;;;;;5015559;28;20071;-65
2023/07/01 03:56:09;;;;;;;6.82;5.43;;;15.00;80.10;;;;;;5015090;28;20041;-65
2023/07/01 03:58:35;;;;;;;6.88;5.40;;;15.00;80.00;;;;;;5016120;28;20049;-66
2023/07/01 04:01:04;;;;;;;7.32;5.80;;;15.00;80.00;;;;;;5017688;28;20050;-65
2023/07/01 04:03:33;;;;;;;7.05;5.38;;;15.10;79.90;;;;;;5013688;28;20046;-65
2023/07/01 04:06:00;;;;;;;8.88;5.25;;;15.10;79.70;;;;;;5015166;28;20413;-65
2023/07/01 04:08:28;;;;;;;7.90;5.43;;;15.10;79.80;;;;;;5012676;28;20042;-66
2023/07/01 04:10:56;;;;;;;6.95;4.90;;;15.10;79.80;;;;;;5013838;28;20062;-64
2023/07/01 04:13:23;;;;;;;6.90;5.05;;;15.10;79.80;;;;;;5017674;28;20049;-65
2023/07/01 04:15:49;;;;;;;6.20;4.88;;;15.00;79.80;;;;;;5012329;28;20061;-64
2023/07/01 04:18:16;;;;;;;7.15;4.75;;;15.10;80.00;;;;;;5015958;28;20045;-64
2023/07/01 04:20:46;;;;;;;6.85;4.95;;;15.00;79.90;;;;;;5016279;28;20099;-65
2023/07/01 04:23:13;;;;;;;6.80;4.73;;;15.00;79.80;;;;;;5007552;28;20042;-65
2023/07/01 04:25:40;;;;;;;6.60;4.70;;;15.00;80.00;;;;;;5016407;28;20058;-66
2023/07/01 04:28:08;;;;;;;6.80;5.32;;;14.90;80.10;;;;;;5017336;28;20409;-66
2023/07/01 04:30:35;;;;;;;7.07;5.13;;;15.00;80.20;;;;;;5015993;28;20042;-66
2023/07/01 04:33:02;;;;;;;7.47;5.28;;;15.00;80.10;;;;;;5012853;28;20126;-64
2023/07/01 04:35:29;;;;;;;7.10;5.43;;;15.10;80.20;;;;;;5014148;28;20053;-63
2023/07/01 04:37:57;;;;;;;7.03;5.30;;;15.10;80.30;;;;;;5012134;28;20448;-65
2023/07/01 04:40:24;;;;;;;7.57;5.43;;;15.10;80.30;;;;;;5012704;28;20038;-66
2023/07/01 04:42:51;;;;;;;7.18;5.18;;;15.10;80.30;;;;;;5011192;28;20049;-67
2023/07/01 04:45:19;;;;;;;7.95;5.70;;;15.20;80.00;;;;;;5011583;28;20045;-65
2023/07/01 04:47:47;;;;;;;8.30;5.90;;;15.30;79.70;;;;;;5013830;28;20151;-66
2023/07/01 04:50:14;;;;;;;8.65;5.55;;;15.40;79.50;;;;;;5013426;28;20050;-66
2023/07/01 04:52:41;;;;;;;7.63;5.35;;;15.40;79.50;;;;;;5015417;28;20104;-66
2023/07/01 04:55:10;;;;;;;6.80;5.10;;;15.60;79.20;;;;;;5013702;28;20066;-66
2023/07/01 04:57:37;;;;;;;7.15;5.40;;;15.60;78.80;;;;;;5013474;28;20042;-66
2023/07/01 05:00:09;;;;;;;5.65;4.70;;;15.60;78.90;;;;;;4996652;28;20498;-65
2023/07/01 05:02:36;;;;;;;6.00;4.63;;;15.50;78.80;;;;;;4996532;28;20453;-65
2023/07/01 05:05:03;;;;;;;5.97;4.82;;;15.60;78.50;;;;;;4995258;28;20057;-66
2023/07/01 05:07:30;;;;;;;7.10;5.18;;;15.60;78.20;;;;;;4976915;28;20054;-66
2023/07/01 05:09:57;;;;;;;6.57;4.97;;;15.70;77.90;;;;;;4993451;28;20061;-65
2023/07/01 05:12:26;;;;;;;6.95;5.50;;;15.60;78.00;;;;;;4996901;28;20060;-65
2023/07/01 05:14:53;;;;;;;5.60;4.05;;;15.60;77.90;;;;;;4989060;28;20169;-65
2023/07/01 05:17:21;;;;;;;6.45;4.72;;;15.60;77.70;;;;;;5000112;28;20050;-64
2023/07/01 05:19:48;;;;;;;7.15;4.90;;;15.60;77.40;;;;;;5017280;28;20111;-64
2023/07/01 05:22:15;;;;;;;5.78;4.78;;;15.60;77.50;;;;;;5013671;28;20058;-65
2023/07/01 05:24:42;;;;;;;6.88;4.93;;;15.60;77.70;;;;;;5012143;28;20042;-65
2023/07/01 05:27:09;;;;;;;6.00;4.50;;;15.60;77.60;;;;;;5001029;28;20128;-64
2023/07/01 05:29:37;;;;;;;5.68;4.38;;;15.60;77.40;;;;;;4992439;28;20058;-65
2023/07/01 05:32:04;;;;;;;6.38;4.47;;;15.60;77.30;;;;;;4988981;28;20045;-65
2023/07/01 05:34:31;;;;;;;5.47;4.35;;;15.60;77.50;;;;;;4998611;28;20125;-65
2023/07/01 05:36:58;;;;;;;5.10;4.05;;;15.60;77.40;;;;;;5014005;28;20056;-66
2023/07/01 05:39:25;;;;;;;5.75;4.30;;;15.70;77.50;;;;;;5014278;28;20038;-65
2023/07/01 05:41:52;;;;;;;5.93;4.32;;;15.80;77.40;;;;;;5014375;28;20066;-65
2023/07/01 05:44:19;;;;;;;5.95;4.57;;;15.80;77.40;;;;;;4995166;28;20155;-65
2023/07/01 05:46:48;;;;;;;6.50;4.25;;;15.90;77.10;;;;;;4986179;28;20053;-65
2023/07/01 05:49:15;;;;;;;5.43;4.30;;;15.90;76.90;;;;;;4994271;28;20485;-65
2023/07/01 05:51:42;;;;;;;5.82;4.35;;;15.80;77.10;;;;;;4994604;28;20061;-65
2023/07/01 05:54:09;;;;;;;7.13;4.68;;;15.80;77.40;;;;;;4996829;28;20058;-64
2023/07/01 05:56:36;;;;;;;5.63;4.43;;;15.80;77.40;;;;;;4989758;28;20133;-66
2023/07/01 05:59:03;;;;;;;5.63;4.13;;;15.70;77.60;;;;;;5006335;28;20145;-65
2023/07/01 06:01:30;;;;;;;5.88;4.53;;;15.70;77.70;;;;;;5014150;28;20473;-65
2023/07/01 06:03:58;;;;;;;5.38;4.18;;;15.70;77.80;;;;;;4997184;28;20062;-64
2023/07/01 06:06:25;;;;;;;6.00;4.43;;;15.80;77.70;;;;;;5011388;28;20057;-66
2023/07/01 06:08:52;;;;;;;6.13;4.03;;;15.90;77.40;;;;;;5014525;28;20599;-66
2023/07/01 06:11:19;;;;;;;5.05;4.07;;;15.80;77.50;;;;;;5011531;28;20049;-66
2023/07/01 06:13:46;;;;;;;7.07;4.50;;;15.80;77.80;;;;;;5013991;28;20049;-65
2023/07/01 06:16:14;;;;;;;6.00;4.40;;;15.90;78.00;;;;;;5015883;28;20457;-66
2023/07/01 06:18:41;;;;;;;6.75;4.03;;;15.90;77.70;;;;;;5019251;28;20048;-66
2023/07/01 06:21:09;;;;;;;6.80;4.72;;;15.90;77.80;;;;;;5016576;28;20056;-65
2023/07/01 06:23:37;;;;;;;5.50;4.00;;;16.00;77.40;;;;;;5018304;28;20053;-65
2023/07/01 06:26:04;;;;;;;5.28;4.10;;;16.00;77.40;;;;;;5016237;28;20057;-65
2023/07/01 06:28:31;;;;;;;5.68;4.25;;;16.10;77.40;;;;;;5021479;28;20044;-65
2023/07/01 06:30:58;;;;;;;5.28;4.07;;;16.20;76.80;;;;;;5016877;28;20133;-66
2023/07/01 06:33:25;;;;;;;6.07;4.10;;;16.30;76.20;;;;;;5010793;28;20136;-64
2023/07/01 06:35:52;;;;;;;6.05;3.90;;;16.40;76.80;;;;;;5018565;28;20054;-65
2023/07/01 06:38:21;;;;;;;5.68;4.28;;;16.60;75.60;;;;;;4997663;28;20039;-66
2023/07/01 06:40:48;;;;;;;5.38;4.07;;;16.80;76.20;;;;;;4996157;28;20637;-65
2023/07/01 06:43:15;;;;;;;6.13;4.10;;;17.00;76.30;;;;;;4998368;28;20054;-66
2023/07/01 06:45:44;;;;;;;7.13;4.28;;;17.20;75.60;;;;;;4996813;28;20054;-65
2023/07/01 06:48:11;;;;;;;7.07;4.43;;;17.30;75.70;;;;;;5006430;28;20065;-65
2023/07/01 06:50:38;;;;;;;6.40;4.38;;;17.50;75.50;;;;;;5014016;28;20049;-66
2023/07/01 06:53:05;;;;;;;6.15;3.97;;;17.70;74.90;;;;;;5018442;28;20041;-67
2023/07/01 06:55:34;;;;;;;5.57;4.05;;;18.00;74.40;;;;;;5017338;28;20132;-66
2023/07/01 06:58:02;;;;;;;5.97;4.20;;;18.20;74.00;;;;;;5018431;28;20056;-67
2023/07/01 07:00:30;;;;;;;5.68;3.70;;;18.40;73.50;;;;;;5011178;28;20050;-67
2023/07/01 07:02:57;;;;;;;5.15;3.60;;;18.60;72.70;;;;;;5017796;28;20053;-67
2023/07/01 07:05:24;;;;;;;5.72;3.33;;;18.90;71.80;;;;;;5014831;28;20075;-66
2023/07/01 07:07:51;;;;;;;5.53;3.70;;;19.10;71.00;;;;;;5016168;28;20353;-66
2023/07/01 07:10:18;;;;;;;5.63;3.45;;;19.30;70.40;;;;;;5014795;28;20050;-65
2023/07/01 07:12:47;;;;;;;6.30;3.88;;;19.50;69.50;;;;;;5012485;28;20072;-66
2023/07/01 07:15:14;;;;;;;6.53;3.85;;;19.70;68.50;;;;;;5015463;28;20041;-66
2023/07/01 07:17:41;;;;;;;5.05;3.53;;;19.90;68.40;;;;;;5008241;28;20049;-66
2023/07/01 07:20:09;;;;;;;5.32;3.50;;;20.10;67.80;;;;;;5012816;28;20415;-68
2023/07/01 07:22:36;;;;;;;6.13;3.60;;;20.20;67.70;;;;;;5014618;28;20065;-66
2023/07/01 07:25:04;;;;;;;5.55;3.47;;;20.20;66.70;;;;;;5012228;28;20046;-66
2023/07/01 07:27:31;;;;;;;7.38;3.45;;;20.20;66.10;;;;;;5020113;28;20077;-66
2023/07/01 07:29:59;;;;;;;5.32;3.33;;;20.20;65.60;;;;;;5008361;28;20080;-65
2023/07/01 07:32:26;;;;;;;5.90;3.50;;;20.10;64.40;;;;;;5012274;28;20053;-66
2023/07/01 07:34:53;;;;;;;5.10;3.17;;;20.10;64.20;;;;;;5012479;28;20053;-65
2023/07/01 07:37:20;;;;;;;7.13;3.55;;;20.10;63.90;;;;;;5016954;28;20049;-66
2023/07/01 07:39:46;;;;;;;6.20;3.03;;;20.10;63.80;;;;;;5014737;28;20545;-67
2023/07/01 07:42:13;;;;;;;7.00;2.90;;;20.40;62.80;;;;;;5016491;28;20151;-65
2023/07/01 07:44:42;;;;;;;5.45;3.17;;;20.70;62.10;;;;;;5014731;28;20046;-67
2023/07/01 07:47:10;;;;;;;5.47;2.67;;;20.80;60.60;;;;;;5006035;28;20094;-67
2023/07/01 07:49:37;;;;;;;9.43;3.20;;;21.20;58.80;;;;;;4982572;28;20043;-67
2023/07/01 07:52:05;;;;;;;5.15;2.75;;;21.30;58.80;;;;;;4978707;28;20053;-66
2023/07/01 07:54:42;;;;;;;5.28;2.50;;;21.60;57.30;;;;;;4980550;28;20093;-67
2023/07/01 07:57:09;;;;;;;5.82;3.20;;;21.60;56.80;;;;;;4993472;28;20097;-67
2023/07/01 07:59:36;;;;;;;5.57;2.88;;;21.80;56.10;;;;;;5012331;28;20049;-67
2023/07/01 08:02:03;;;;;;;4.95;2.50;;;21.70;56.20;;;;;;5014271;28;20050;-67
2023/07/01 08:04:32;;;;;;;5.45;2.33;;;21.80;56.00;;;;;;5015264;28;20054;-65
2023/07/01 08:06:59;;;;;;;5.65;2.40;;;21.90;54.40;;;;;;5005866;28;20070;-67
2023/07/01 08:09:26;;;;;;;4.00;2.40;;;22.10;53.70;;;;;;5015444;28;20046;-67
2023/07/01 08:11:54;;;;;;;5.18;2.22;;;22.10;52.90;;;;;;5013108;28;20497;-67
2023/07/01 08:14:21;;;;;;;4.75;2.30;;;22.30;52.80;;;;;;5011152;28;20046;-66
2023/07/01 08:16:47;;;;;;;4.93;2.38;;;22.30;52.40;;;;;;5007121;28;20075;-65
2023/07/01 08:19:14;;;;;;;5.05;2.25;;;22.40;52.00;;;;;;5016172;28;20094;-65
2023/07/01 08:21:43;;;;;;;5.43;2.05;;;22.40;52.00;;;;;;5017399;28;20041;-66
2023/07/01 08:24:10;;;;;;;7.25;2.28;;;22.40;51.70;;;;;;5016010;28;20050;-64
2023/07/01 08:26:36;;;;;;;5.03;2.03;;;22.50;51.50;;;;;;5015852;28;20049;-66
2023/07/01 08:29:09;;;;;;;4.68;2.28;;;22.60;51.20;;;;;;5012953;28;20061;-66
2023/07/01 08:31:36;;;;;;;6.38;2.28;;;22.80;51.30;;;;;;4990689;28;20051;-68
2023/07/01 08:34:03;;;;;;;3.28;1.75;;;22.90;50.50;;;;;;4988086;28;20050;-67
2023/07/01 08:36:30;;;;;;;3.72;2.10;;;23.00;50.50;;;;;;5013287;28;20163;-65
2023/07/01 08:38:59;;;;;;;4.53;2.00;;;23.10;50.30;;;;;;5016399;28;20053;-67
2023/07/01 08:41:26;;;;;;;7.97;1.92;;;23.30;49.80;;;;;;5006965;28;20046;-66
2023/07/01 08:43:54;;;;;;;7.40;1.92;;;23.30;49.00;;;;;;5006154;28;20512;-67
2023/07/01 08:46:23;;;;;;;3.55;1.90;;;23.30;48.40;;;;;;4987578;28;20042;-67
2023/07/01 08:48:51;;;;;;;4.82;2.17;;;23.20;48.30;;;;;;4998957;28;20060;-67
2023/07/01 08:51:22;;;;;;;4.97;1.83;;;23.10;48.20;;;;;;4998743;28;20057;-67
2023/07/01 08:54:03;;;;;;;4.53;2.25;;;23.00;48.50;;;;;;4988790;28;20057;-66
2023/07/01 08:56:32;;;;;;;4.40;2.03;;;23.00;48.60;;;;;;4996660;28;20046;-65
2023/07/01 08:59:00;;;;;;;3.57;2.10;;;23.10;48.10;;;;;;5004391;28;20046;-65
2023/07/01 09:01:29;;;;;;;3.40;1.90;;;23.10;47.90;;;;;;5014823;28;20050;-67
2023/07/01 09:03:55;;;;;;;5.47;2.07;;;23.10;47.60;;;;;;5017194;28;20080;-66
2023/07/01 09:06:23;;;;;;;7.70;2.50;;;23.20;47.40;;;;;;5016109;28;20501;-66
2023/07/01 09:08:50;;;;;;;3.88;1.95;;;23.40;47.20;;;;;;5016429;28;20084;-66
2023/07/01 09:11:19;;;;;;;4.40;2.30;;;23.70;46.70;;;;;;5006412;28;20086;-65
2023/07/01 09:13:55;;;;;;;4.82;2.58;;;23.80;46.10;;;;;;5013753;28;20049;-66
2023/07/01 09:16:31;;;;;;;4.15;2.20;;;23.90;46.20;;;;;;5009523;28;20054;-65
2023/07/01 09:19:04;;;;;;;4.70;2.45;;;24.10;46.00;;;;;;5014950;28;20054;-66
2023/07/01 09:21:32;;;;;;;6.15;2.40;;;24.20;45.70;;;;;;5017800;28;20480;-65
2023/07/01 09:23:59;;;;;;;4.30;2.20;;;24.30;45.60;;;;;;5015180;28;20051;-66
2023/07/01 09:26:30;;;;;;;6.43;2.90;;;24.40;45.10;;;;;;5017313;28;20557;-65
2023/07/01 09:28:59;;;;;;;4.95;2.53;;;24.40;44.70;;;;;;5017457;28;20054;-65
2023/07/01 09:31:26;;;;;;;5.22;2.70;;;24.60;44.80;;;;;;5016129;28;20042;-66
2023/07/01 09:34:02;;;;;;;7.30;2.75;;;24.80;44.40;;;;;;5015403;28;20052;-65
2023/07/01 09:36:32;;;;;;;4.55;2.55;;;24.80;44.10;;;;;;4993530;28;20105;-67
2023/07/01 09:38:59;;;;;;;6.50;2.53;;;24.80;44.10;;;;;;4998309;28;20050;-66
2023/07/01 09:41:28;;;;;;;4.97;2.58;;;24.70;44.30;;;;;;4988798;28;20046;-65
2023/07/01 09:43:56;;;;;;;5.63;2.60;;;24.70;44.60;;;;;;5000502;28;20409;-65
2023/07/01 09:46:26;;;;;;;4.78;2.17;;;24.70;44.50;;;;;;5003444;28;20046;-65
2023/07/01 09:48:54;;;;;;;6.63;2.72;;;24.70;44.60;;;;;;5000980;28;20508;-65
2023/07/01 09:51:23;;;;;;;5.15;2.50;;;24.60;44.90;;;;;;5001143;28;20046;-65
2023/07/01 09:53:50;;;;;;;4.17;2.20;;;24.60;45.10;;;;;;5002111;28;20062;-65
2023/07/01 09:56:18;;;;;;;6.20;2.20;;;24.50;45.30;;;;;;5000093;28;20060;-65
2023/07/01 09:58:46;;;;;;;4.57;2.10;;;24.40;45.60;;;;;;5002332;28;20050;-64
2023/07/01 10:01:13;;;;;;;5.38;2.13;;;24.30;45.90;;;;;;5003855;28;20049;-66
2023/07/01 10:03:42;;;;;;;5.05;2.50;;;24.20;45.60;;;;;;4999980;28;20156;-66
2023/07/01 10:06:09;;;;;;;4.78;2.38;;;24.10;46.00;;;;;;4998956;28;20055;-66
2023/07/01 10:08:36;;;;;;;4.25;2.15;;;24.10;46.10;;;;;;5000235;28;20082;-65
2023/07/01 10:11:07;;;;;;;4.78;2.20;;;24.10;46.30;;;;;;4996802;28;20151;-65
2023/07/01 10:13:39;;;;;;;4.72;2.00;;;24.10;46.50;;;;;;5002428;28;20504;-65
2023/07/01 10:16:08;;;;;;;3.65;2.10;;;24.00;47.00;;;;;;5017469;28;20084;-64
2023/07/01 10:18:35;;;;;;;7.53;2.20;;;23.90;47.40;;;;;;5016811;28;20049;-65
2023/07/01 10:21:31;;;;;;;4.53;1.95;;;23.80;47.80;;;;;;5021578;28;20042;-65
2023/07/01 10:23:59;;;;;;;8.43;2.00;;;23.70;48.50;;;;;;5019619;28;20588;-66
2023/07/01 10:26:43;;;;;;;5.57;1.90;;;23.60;49.10;;;;;;5019922;28;20508;-66
2023/07/01 10:29:38;;;;;;;3.65;1.83;;;23.60;49.20;;;;;;5021663;28;20056;-65
2023/07/01 10:32:34;;;;;;;4.85;1.63;;;23.60;49.60;;;;;;5023767;28;20560;-66
2023/07/01 10:35:15;;;;;;;2.97;1.35;;;23.60;49.90;;;;;;5018134;28;20054;-66
2023/07/01 10:37:45;;;;;;;4.15;1.77;;;23.60;49.70;;;;;;5019654;28;20088;-66
2023/07/01 10:40:43;;;;;;;4.93;1.60;;;23.50;50.20;;;;;;5023474;28;20050;-66
2023/07/01 10:43:25;;;;;;;4.10;1.88;;;23.50;50.50;;;;;;5020008;28;20527;-66
2023/07/01 10:46:10;;;;;;;4.43;1.80;;;23.60;50.20;;;;;;5019980;28;20534;-65
2023/07/01 10:48:38;;;;;;;3.88;1.70;;;23.60;50.50;;;;;;4990801;28;20050;-65
2023/07/01 10:51:06;;;;;;;3.33;1.38;;;23.60;50.90;;;;;;4984308;28;20055;-66
2023/07/01 10:53:58;;;;;;;3.03;1.60;;;23.50;51.00;;;;;;5015141;28;20132;-65
2023/07/01 10:56:25;;;;;;;3.45;1.52;;;23.40;51.40;;;;;;4991325;28;20505;-66
2023/07/01 10:59:20;;;;;;;3.65;1.50;;;23.30;51.90;;;;;;4981935;28;20039;-65
2023/07/01 11:01:49;;;;;;;3.63;1.50;;;23.30;52.30;;;;;;4989200;28;20046;-65
2023/07/01 11:04:17;;;;;;;3.75;1.73;;;23.20;52.20;;;;;;4981713;28;20050;-66
2023/07/01 11:06:49;;;;;;;2.92;1.60;;;23.20;52.30;;;;;;4985293;28;20061;-65
2023/07/01 11:09:28;;;;;;;2.92;1.42;;;23.10;52.50;;;;;;5018172;28;20052;-67
2023/07/01 11:11:55;;;;;;;4.60;1.98;;;23.10;52.50;;;;;;5012878;28;20576;-65
2023/07/01 11:14:30;;;;;;;2.97;1.52;;;23.10;52.70;;;;;;5001341;28;20050;-65
2023/07/01 11:17:06;;;;;;;2.70;1.40;;;23.10;52.90;;;;;;5015832;28;20630;-66
2023/07/01 11:19:33;;;;;;;3.20;1.45;;;23.00;53.20;;;;;;5015251;28;20076;-65
2023/07/01 11:22:01;;;;;;;3.63;1.50;;;23.10;53.20;;;;;;5017348;28;20493;-65
2023/07/01 11:24:30;;;;;;;3.50;1.50;;;23.20;53.40;;;;;;5014875;28;20100;-65
2023/07/01 11:27:02;;;;;;;4.63;1.80;;;23.30;53.10;;;;;;5017084;28;20057;-65
2023/07/01 11:29:31;;;;;;;3.05;1.63;;;23.30;53.00;;;;;;5013809;28;20056;-66
2023/07/01 11:31:59;;;;;;;2.92;1.35;;;23.20;53.40;;;;;;5016784;28;20041;-66
2023/07/01 11:34:27;;;;;;;3.42;1.60;;;23.20;53.40;;;;;;5019134;28;20053;-67
2023/07/01 11:36:54;;;;;;;3.60;1.55;;;23.10;53.70;;;;;;5017883;28;20140;-65
2023/07/01 11:39:21;;;;;;;3.80;1.50;;;23.10;54.10;;;;;;5001645;28;20084;-65
2023/07/01 11:41:51;;;;;;;1.67;1.10;;;23.00;54.50;;;;;;5016082;28;20049;-65
2023/07/01 11:44:20;;;;;;;4.50;1.40;;;22.90;55.10;;;;;;5015604;28;20064;-66
2023/07/01 11:46:47;;;;;;;;;;;22.70;55.90;;;;;;5019138;28;20046;-64
2023/07/01 11:49:16;;;;;;;2.17;1.13;;;22.60;56.10;;;;;;5015994;28;19930;-66
2023/07/01 11:51:44;;;;;;;2.70;1.23;;;22.60;56.20;;;;;;5015946;28;20049;-66
2023/07/01 11:54:15;;;;;;;3.23;1.60;;;22.60;56.50;;;;;;5014365;28;20085;-66
2023/07/01 11:56:43;;;;;;;2.55;1.15;;;22.60;56.70;;;;;;5010132;28;20054;-65
2023/07/01 11:59:11;;;;;;;2.67;1.40;;;22.60;57.20;;;;;;5014565;28;20053;-66
2023/07/01 12:01:39;;;;;;;2.97;1.40;;;22.60;57.20;;;;;;5015460;28;20049;-65
2023/07/01 12:04:17;;;;;;;3.13;1.60;;;22.60;57.50;;;;;;5016564;28;20044;-65
2023/07/01 12:06:45;;;;;;;2.88;1.52;;;22.70;57.50;;;;;;5015589;28;20089;-67
2023/07/01 12:09:26;;;;;;;2.40;1.25;;;22.70;57.90;;;;;;5013556;28;20413;-66
2023/07/01 12:11:54;;;;;;;3.13;1.63;;;22.80;58.10;;;;;;5018825;28;20558;-65
2023/07/01 12:14:23;;;;;;;2.45;1.38;;;22.80;58.60;;;;;;5015851;28;20049;-65
2023/07/01 12:16:51;;;;;;;2.85;1.23;;;22.80;58.60;;;;;;5017905;28;20064;-66
2023/07/01 12:19:20;;;;;;;3.20;1.55;;;22.70;59.00;;;;;;5017575;28;20136;-66
2023/07/01 12:21:47;;;;;;;3.77;1.60;;;22.60;59.60;;;;;;5015613;28;20056;-65
2023/07/01 12:24:18;;;;;;;3.08;1.60;;;22.60;60.10;;;;;;5015570;28;20046;-66
2023/07/01 12:26:45;;;;;;;3.38;1.80;;;22.60;60.90;;;;;;5016269;28;20141;-66
2023/07/01 12:29:12;;;;;;;2.83;1.65;;;22.40;61.50;;;;;;5012537;28;20397;-66
2023/07/01 12:31:41;;;;;;;2.60;1.30;;;22.40;62.30;;;;;;5009800;28;20049;-67
2023/07/01 12:34:08;;;;;;;2.72;1.60;;;22.40;63.10;;;;;;5015235;28;20060;-66
2023/07/01 12:36:36;;;;;;;5.00;1.33;;;22.30;63.70;;;;;;5016199;28;20045;-65
2023/07/01 12:39:03;;;;;;;2.63;1.35;;;22.30;64.00;;;;;;5015323;28;20057;-66
2023/07/01 12:41:31;;;;;;;2.88;1.27;;;22.20;64.70;;;;;;5018326;28;20480;-65
2023/07/01 12:43:58;;;;;;;2.88;1.58;;;22.10;65.50;;;;;;5013426;28;20041;-67
2023/07/01 12:46:25;;;;;;;2.78;1.38;;;22.10;66.10;;;;;;5017959;28;20342;-65
2023/07/01 12:48:53;;;;;;;3.25;1.20;;;22.20;65.70;;;;;;5016845;28;20081;-65
2023/07/01 12:51:20;;;;;;;4.57;1.50;;;22.10;66.40;;;;;;4991882;28;20046;-66
2023/07/01 12:53:47;;;;;;;3.47;1.52;;;22.10;66.90;;;;;;4979395;28;20061;-65
2023/07/01 12:56:14;;;;;;;4.07;1.70;;;22.10;66.80;;;;;;4980326;28;20063;-67